Time;durP1;ratioP1;P1;durP2;ratioP2;P2;SDS_P1;SDS_P2;PMS_P1;PMS_P2;Temp;Humidity;BMP_temperature;BMP_pressure;BME280_temperature;BME280_humidity;BME280_pressure;Samples;Min_cycle;Max_cycle;Signal;HPM_P1;HPM_P2
2022/01/06 00:00:28;;;;;;;8.07;4.00;;;5.10;99.90;;;;;;4931761;29;20239;-68
2022/01/06 00:02:56;;;;;;;5.57;3.53;;;5.20;99.90;;;;;;4937252;28;20664;-67
2022/01/06 00:05:24;;;;;;;8.52;4.20;;;5.40;99.90;;;;;;4949634;28;20215;-67
2022/01/06 00:07:52;;;;;;;7.88;3.85;;;5.50;99.90;;;;;;4937221;29;20239;-68
2022/01/06 00:10:20;;;;;;;6.30;3.92;;;5.50;99.90;;;;;;4936975;29;20327;-67
2022/01/06 00:13:05;;;;;;;5.72;3.95;;;5.30;99.90;;;;;;4936685;29;20207;-68
2022/01/06 00:15:38;;;;;;;4.00;3.60;;;5.50;99.90;;;;;;4935624;29;20259;-68
2022/01/06 00:18:23;;;;;;;4.85;3.45;;;5.50;99.90;;;;;;4936828;29;20234;-68
2022/01/06 00:23:39;;;;;;;3.80;3.08;;;5.70;99.90;;;;;;4932635;29;20239;-67
2022/01/06 00:26:08;;;;;;;5.68;3.20;;;5.70;99.90;;;;;;4936554;29;20681;-68
2022/01/06 00:28:38;;;;;;;5.25;3.42;;;5.70;99.90;;;;;;4936703;29;20263;-68
2022/01/06 00:31:06;;;;;;;8.73;3.33;;;5.70;99.90;;;;;;4941757;29;20299;-67
2022/01/06 00:33:35;;;;;;;5.85;3.38;;;6.00;99.90;;;;;;4932804;29;20238;-68
2022/01/06 00:36:04;;;;;;;8.48;4.20;;;6.20;99.90;;;;;;4936409;29;20258;-68
2022/01/06 00:38:32;;;;;;;3.55;3.25;;;6.10;99.90;;;;;;4936546;29;20291;-67
2022/01/06 00:41:00;;;;;;;8.27;4.20;;;6.00;99.90;;;;;;4936395;29;20251;-67
2022/01/06 00:43:28;;;;;;;9.05;4.07;;;5.90;99.90;;;;;;4951823;29;20223;-68
2022/01/06 00:45:57;;;;;;;7.07;3.35;;;5.90;99.90;;;;;;4954525;28;20262;-68
2022/01/06 00:48:25;;;;;;;3.80;3.40;;;6.00;99.90;;;;;;4954647;29;20242;-67
2022/01/06 00:50:53;;;;;;;5.47;3.03;;;6.20;99.90;;;;;;4950795;29;20322;-67
2022/01/06 00:53:21;;;;;;;6.00;3.42;;;6.20;99.90;;;;;;4938101;29;20231;-68
2022/01/06 00:55:49;;;;;;;9.10;4.43;;;6.10;99.90;;;;;;4936301;29;20266;-67
2022/01/06 00:58:16;;;;;;;4.75;3.85;;;6.00;99.90;;;;;;4936235;29;20239;-68
2022/01/06 01:00:45;;;;;;;4.60;3.58;;;6.10;99.90;;;;;;4932610;29;20227;-67
2022/01/06 01:03:17;;;;;;;5.78;3.30;;;6.10;99.90;;;;;;4942467;29;20699;-68
2022/01/06 01:05:46;;;;;;;4.32;1.95;;;6.30;99.90;;;;;;4954310;28;20593;-67
2022/01/06 01:08:14;;;;;;;5.32;2.63;;;6.20;99.90;;;;;;4954446;29;20246;-68
2022/01/06 01:10:44;;;;;;;2.70;2.20;;;6.20;99.90;;;;;;4954381;29;20656;-68
2022/01/06 01:13:13;;;;;;;4.20;2.30;;;6.30;99.90;;;;;;4954063;29;20234;-67
2022/01/06 01:15:47;;;;;;;3.75;2.35;;;6.30;99.90;;;;;;4954120;28;20219;-68
2022/01/06 01:18:18;;;;;;;4.03;3.00;;;6.40;99.90;;;;;;4929810;29;20267;-67
2022/01/06 01:20:46;;;;;;;4.32;2.60;;;6.40;99.90;;;;;;4930193;29;20200;-68
2022/01/06 01:23:14;;;;;;;5.70;2.33;;;6.50;99.90;;;;;;4935468;29;20216;-67
2022/01/06 01:25:42;;;;;;;6.38;2.03;;;6.50;99.90;;;;;;4935587;29;20858;-68
2022/01/06 01:28:11;;;;;;;4.68;2.00;;;6.60;99.90;;;;;;4935624;29;20236;-67
2022/01/06 01:30:52;;;;;;;3.97;2.30;;;6.60;99.90;;;;;;4941878;29;20203;-67
2022/01/06 01:33:21;;;;;;;5.20;3.28;;;6.60;99.90;;;;;;4930611;29;20200;-67
2022/01/06 01:35:49;;;;;;;4.45;2.33;;;6.50;99.90;;;;;;4935256;29;20731;-68
2022/01/06 01:38:17;;;;;;;5.97;2.17;;;6.50;99.90;;;;;;4935492;29;20203;-67
2022/01/06 01:40:45;;;;;;;3.22;2.30;;;6.50;99.90;;;;;;4935515;29;20243;-67
2022/01/06 01:43:12;;;;;;;4.45;2.25;;;6.60;99.90;;;;;;4950004;29;20322;-67
2022/01/06 01:45:46;;;;;;;4.18;2.33;;;6.60;99.90;;;;;;4954640;28;20258;-68
2022/01/06 01:48:22;;;;;;;4.25;2.38;;;6.50;99.90;;;;;;4953693;29;20211;-68
2022/01/06 01:50:51;;;;;;;6.07;2.88;;;6.40;99.90;;;;;;4953656;29;20225;-67
2022/01/06 01:53:19;;;;;;;3.90;3.10;;;6.20;99.90;;;;;;4953215;29;20250;-67
2022/01/06 01:55:47;;;;;;;10.30;3.58;;;6.10;99.90;;;;;;4953309;28;20269;-68
2022/01/06 01:58:15;;;;;;;6.40;3.33;;;6.20;99.90;;;;;;4943703;29;20291;-68
2022/01/06 02:00:43;;;;;;;3.67;2.67;;;6.30;99.90;;;;;;4935140;29;20294;-67
2022/01/06 02:03:11;;;;;;;3.95;2.58;;;6.30;99.90;;;;;;4944243;29;20218;-68
2022/01/06 02:05:39;;;;;;;5.93;2.28;;;6.30;99.90;;;;;;4953199;28;20287;-68
2022/01/06 02:08:09;;;;;;;4.53;2.25;;;6.40;99.90;;;;;;4953148;29;20231;-67
2022/01/06 02:10:37;;;;;;;2.50;2.00;;;6.40;99.90;;;;;;4953310;28;20227;-68
2022/01/06 02:13:05;;;;;;;4.22;2.13;;;6.40;99.90;;;;;;4952849;28;20278;-67
2022/01/06 02:15:33;;;;;;;2.60;2.40;;;6.50;99.90;;;;;;4952936;28;20755;-67
2022/01/06 02:18:01;;;;;;;4.38;2.60;;;6.40;99.90;;;;;;4953203;29;20668;-68
2022/01/06 02:20:31;;;;;;;7.20;3.10;;;6.30;99.90;;;;;;4953054;29;20298;-68
2022/01/06 02:22:59;;;;;;;4.30;2.40;;;6.00;99.90;;;;;;4952918;29;20270;-67
2022/01/06 02:25:29;;;;;;;9.18;2.92;;;5.80;99.90;;;;;;4952996;28;20266;-68
2022/01/06 02:28:00;;;;;;;6.18;2.85;;;5.60;99.90;;;;;;4928567;29;20228;-68
2022/01/06 02:30:28;;;;;;;9.75;3.15;;;5.50;99.90;;;;;;4922024;29;20201;-66
2022/01/06 02:32:56;;;;;;;4.55;2.60;;;5.60;99.90;;;;;;4933863;29;20234;-68
2022/01/06 02:35:25;;;;;;;6.60;2.90;;;5.50;99.90;;;;;;4952699;28;20310;-68
2022/01/06 02:37:55;;;;;;;7.65;1.92;;;5.60;99.90;;;;;;4952969;29;20230;-67
2022/01/06 02:40:24;;;;;;;5.72;2.90;;;5.60;99.90;;;;;;4953323;29;20199;-68
2022/01/06 02:42:55;;;;;;;6.88;2.20;;;5.40;99.90;;;;;;4939757;29;20243;-67
2022/01/06 02:45:26;;;;;;;17.10;2.80;;;5.50;99.90;;;;;;4934306;29;20267;-68
2022/01/06 02:47:55;;;;;;;10.32;2.95;;;5.50;99.90;;;;;;4934544;29;20227;-67
2022/01/06 02:50:25;;;;;;;5.18;2.90;;;5.80;99.90;;;;;;4934622;29;20259;-67
2022/01/06 02:52:54;;;;;;;6.80;2.88;;;5.90;99.90;;;;;;4934362;29;20235;-68
2022/01/06 02:55:22;;;;;;;4.35;2.85;;;6.00;99.90;;;;;;4934525;29;20247;-68
2022/01/06 02:57:50;;;;;;;4.55;2.35;;;6.20;99.90;;;;;;4934503;29;20282;-68
2022/01/06 03:00:18;;;;;;;3.20;2.33;;;6.30;99.90;;;;;;4937058;29;20699;-68
2022/01/06 03:02:47;;;;;;;10.95;3.45;;;6.30;99.90;;;;;;4929506;29;20254;-68
2022/01/06 03:05:17;;;;;;;10.18;3.05;;;6.20;99.90;;;;;;4935808;29;20224;-68
2022/01/06 03:07:46;;;;;;;9.65;3.20;;;6.20;99.90;;;;;;4934445;29;20207;-68
2022/01/06 03:10:17;;;;;;;3.90;2.80;;;6.30;99.90;;;;;;4934447;29;20208;-68
2022/01/06 03:12:45;;;;;;;7.85;2.75;;;6.30;99.90;;;;;;4934077;29;20235;-68
2022/01/06 03:15:15;;;;;;;6.13;2.22;;;6.30;99.90;;;;;;4934275;29;20224;-68
2022/01/06 03:17:45;;;;;;;5.57;2.35;;;6.30;99.90;;;;;;4934378;29;20237;-68
2022/01/06 03:20:15;;;;;;;7.25;2.50;;;6.40;99.90;;;;;;4934575;29;20304;-68
2022/01/06 03:22:43;;;;;;;7.05;2.88;;;6.40;99.90;;;;;;4934023;29;20283;-69
2022/01/06 03:25:12;;;;;;;8.18;2.95;;;6.40;99.90;;;;;;4937710;29;20638;-69
2022/01/06 03:27:42;;;;;;;10.73;3.30;;;6.20;99.90;;;;;;4938193;29;20238;-69
2022/01/06 03:30:13;;;;;;;8.15;3.00;;;6.20;99.90;;;;;;4933873;29;20340;-69
2022/01/06 03:32:41;;;;;;;6.65;2.60;;;6.10;99.90;;;;;;4933893;29;20556;-68
2022/01/06 03:35:12;;;;;;;5.85;2.38;;;6.10;99.90;;;;;;4931375;29;20259;-68
2022/01/06 03:37:40;;;;;;;6.68;2.92;;;6.10;99.90;;;;;;4932205;29;20228;-69
2022/01/06 03:40:10;;;;;;;9.43;2.92;;;6.10;99.90;;;;;;4937881;29;20286;-68
2022/01/06 03:42:39;;;;;;;11.88;3.10;;;6.10;99.90;;;;;;4944227;29;20199;-68
2022/01/06 03:45:11;;;;;;;4.72;2.80;;;6.10;99.90;;;;;;4955704;28;20321;-68
2022/01/06 03:47:40;;;;;;;7.65;2.35;;;6.10;99.90;;;;;;4956064;29;20192;-68
2022/01/06 03:50:10;;;;;;;6.55;2.22;;;6.00;99.90;;;;;;4955901;29;20649;-69
2022/01/06 03:52:38;;;;;;;9.57;2.97;;;5.90;99.90;;;;;;4956041;28;20195;-69
2022/01/06 03:55:09;;;;;;;8.00;3.17;;;5.70;99.90;;;;;;4955667;28;20258;-68
2022/01/06 03:57:36;;;;;;;6.55;2.60;;;5.60;99.90;;;;;;4956028;29;20656;-68
2022/01/06 04:00:09;;;;;;;9.77;2.80;;;5.60;99.90;;;;;;4951229;29;20239;-69
2022/01/06 04:02:37;;;;;;;8.10;3.80;;;5.60;99.90;;;;;;4932511;29;20286;-69
2022/01/06 04:05:06;;;;;;;13.07;4.45;;;5.60;99.90;;;;;;4934425;29;20239;-68
2022/01/06 04:07:34;;;;;;;9.18;3.90;;;5.70;99.90;;;;;;4937428;29;20275;-69
2022/01/06 04:10:03;;;;;;;8.50;2.83;;;5.60;99.90;;;;;;4933821;29;20235;-68
2022/01/06 04:12:33;;;;;;;6.35;2.40;;;5.50;99.90;;;;;;4946759;29;20260;-68
2022/01/06 04:15:02;;;;;;;8.25;2.85;;;5.30;99.90;;;;;;4955445;28;20226;-68
2022/01/06 04:17:31;;;;;;;7.15;3.00;;;5.30;99.90;;;;;;4955505;29;20200;-68
2022/01/06 04:19:59;;;;;;;12.82;3.50;;;5.30;99.90;;;;;;4955588;29;20291;-69
2022/01/06 04:22:27;;;;;;;16.88;4.05;;;5.30;99.90;;;;;;4955316;29;20203;-69
2022/01/06 04:24:55;;;;;;;5.65;3.47;;;5.40;99.90;;;;;;4955357;28;20704;-69
2022/01/06 04:27:22;;;;;;;7.25;3.40;;;5.50;99.90;;;;;;4955389;29;20223;-68
2022/01/06 04:29:50;;;;;;;7.30;3.33;;;5.50;99.90;;;;;;4948704;29;20227;-69
2022/01/06 04:32:18;;;;;;;10.55;3.13;;;5.60;99.90;;;;;;4940161;29;20695;-68
2022/01/06 04:34:47;;;;;;;10.00;3.00;;;5.70;99.90;;;;;;4954880;28;20203;-69
2022/01/06 04:37:15;;;;;;;7.47;3.75;;;5.80;99.90;;;;;;4955189;29;20290;-69
2022/01/06 04:39:43;;;;;;;13.27;2.88;;;5.90;99.90;;;;;;4955174;29;20226;-68
2022/01/06 04:42:11;;;;;;;11.25;3.67;;;5.90;99.90;;;;;;4947169;29;20231;-69
2022/01/06 04:44:39;;;;;;;12.10;3.33;;;5.70;99.90;;;;;;4936421;29;20227;-68
2022/01/06 04:47:08;;;;;;;16.30;3.97;;;5.50;99.90;;;;;;4898815;29;20209;-69
2022/01/06 04:49:35;;;;;;;8.32;3.33;;;5.50;99.90;;;;;;4898938;29;20268;-68
2022/01/06 04:52:05;;;;;;;8.90;3.63;;;5.50;99.90;;;;;;4898719;29;20236;-68
2022/01/06 04:54:33;;;;;;;6.75;2.90;;;5.40;99.90;;;;;;4898553;29;20202;-68
2022/01/06 04:57:01;;;;;;;9.90;3.65;;;5.40;99.90;;;;;;4898548;29;20264;-69
2022/01/06 04:59:29;;;;;;;14.95;4.18;;;4.80;99.90;;;;;;4898575;29;20677;-68
2022/01/06 05:01:57;;;;;;;10.10;3.92;;;4.20;99.90;;;;;;4886307;29;20240;-68
2022/01/06 05:04:25;;;;;;;16.48;4.70;;;4.10;99.90;;;;;;4915598;29;20236;-68
2022/01/06 05:06:53;;;;;;;9.20;3.83;;;4.00;99.90;;;;;;4916409;29;20313;-67
2022/01/06 05:09:22;;;;;;;12.38;4.13;;;4.20;99.90;;;;;;4916491;29;20225;-68
2022/01/06 05:11:50;;;;;;;11.00;3.90;;;4.50;99.90;;;;;;4916700;29;20232;-68
2022/01/06 05:14:18;;;;;;;11.80;4.70;;;4.70;99.90;;;;;;4916105;29;20201;-68
2022/01/06 05:16:46;;;;;;;11.02;5.13;;;4.90;99.90;;;;;;4900302;29;20312;-68
2022/01/06 05:19:14;;;;;;;10.40;3.75;;;5.00;99.90;;;;;;4898103;29;20233;-68
2022/01/06 05:21:42;;;;;;;11.48;4.43;;;5.00;99.90;;;;;;4898125;29;20305;-68
2022/01/06 05:24:13;;;;;;;15.00;3.85;;;4.90;99.90;;;;;;4898081;29;20315;-68
2022/01/06 05:26:43;;;;;;;9.80;4.40;;;4.90;99.90;;;;;;4892071;29;20838;-68
2022/01/06 05:29:13;;;;;;;10.77;4.00;;;5.00;99.90;;;;;;4898431;29;20649;-67
2022/01/06 05:31:41;;;;;;;11.05;4.18;;;5.10;99.90;;;;;;4898775;29;20284;-68
2022/01/06 05:34:09;;;;;;;16.02;4.88;;;5.00;99.90;;;;;;4894151;29;20245;-68
2022/01/06 05:36:38;;;;;;;6.53;3.38;;;5.10;99.90;;;;;;4897614;29;20252;-68
2022/01/06 05:39:06;;;;;;;12.38;4.05;;;5.20;99.90;;;;;;4897927;29;20292;-68
2022/01/06 05:41:35;;;;;;;8.55;3.65;;;5.10;99.90;;;;;;4898737;29;20670;-68
2022/01/06 05:44:05;;;;;;;8.93;3.03;;;5.20;99.90;;;;;;4915539;29;20239;-68
2022/01/06 05:46:33;;;;;;;12.65;4.68;;;5.30;99.90;;;;;;4932848;29;20243;-68
2022/01/06 05:49:01;;;;;;;14.90;3.05;;;5.40;99.90;;;;;;4935822;29;20645;-68
2022/01/06 05:51:29;;;;;;;10.85;3.83;;;5.40;99.90;;;;;;4934522;29;20803;-68
2022/01/06 05:53:58;;;;;;;10.88;3.17;;;5.30;99.90;;;;;;4933914;29;20247;-68
2022/01/06 05:56:27;;;;;;;9.52;3.95;;;5.30;99.90;;;;;;4927995;28;20626;-68
2022/01/06 05:58:55;;;;;;;10.27;3.15;;;5.30;99.90;;;;;;4953670;29;20199;-68
2022/01/06 06:01:24;;;;;;;13.93;5.03;;;5.10;99.90;;;;;;4929406;29;20272;-67
2022/01/06 06:03:54;;;;;;;11.18;4.40;;;5.10;99.90;;;;;;4943551;29;20231;-68
2022/01/06 06:06:22;;;;;;;9.02;4.30;;;5.20;99.90;;;;;;4935049;29;20242;-68
2022/01/06 06:08:50;;;;;;;10.73;3.75;;;5.40;99.90;;;;;;4935187;29;20616;-69
2022/01/06 06:11:18;;;;;;;10.45;4.15;;;5.50;99.90;;;;;;4935196;29;20200;-68
2022/01/06 06:13:46;;;;;;;10.23;3.28;;;5.60;99.90;;;;;;4936313;29;20219;-68
2022/01/06 06:16:14;;;;;;;10.82;4.43;;;5.40;99.90;;;;;;4953379;28;20274;-68
2022/01/06 06:18:43;;;;;;;9.48;3.50;;;5.30;99.90;;;;;;4953479;29;20687;-68
2022/01/06 06:21:11;;;;;;;15.05;3.95;;;5.00;99.90;;;;;;4947702;29;20253;-68
2022/01/06 06:23:39;;;;;;;10.38;3.58;;;4.80;99.90;;;;;;4939026;29;20242;-68
2022/01/06 06:26:06;;;;;;;8.35;3.75;;;4.70;99.90;;;;;;4952896;28;20258;-68
2022/01/06 06:28:34;;;;;;;10.65;3.42;;;4.70;99.90;;;;;;4953207;29;20302;-68
2022/01/06 06:31:02;;;;;;;10.50;3.58;;;4.70;99.90;;;;;;4944547;29;20208;-68
2022/01/06 06:33:30;;;;;;;10.35;3.47;;;4.70;99.90;;;;;;4931245;29;20564;-68
2022/01/06 06:36:00;;;;;;;10.38;4.63;;;4.80;99.90;;;;;;4934648;29;20262;-68
2022/01/06 06:38:27;;;;;;;9.82;4.18;;;4.80;99.90;;;;;;4934763;29;20250;-68
2022/01/06 06:40:55;;;;;;;10.82;3.85;;;5.00;99.90;;;;;;4934720;29;20239;-68
2022/01/06 06:43:23;;;;;;;11.73;4.10;;;5.10;99.90;;;;;;4946343;29;20616;-68
2022/01/06 06:45:51;;;;;;;10.30;4.07;;;5.20;99.90;;;;;;4927926;29;20247;-68
2022/01/06 06:48:19;;;;;;;11.35;3.90;;;5.40;99.90;;;;;;4921700;29;20292;-66
2022/01/06 06:50:47;;;;;;;12.70;3.70;;;5.50;99.90;;;;;;4924804;29;20222;-68
2022/01/06 06:53:16;;;;;;;9.05;3.63;;;5.70;99.90;;;;;;4921043;29;20235;-68
2022/01/06 06:55:44;;;;;;;10.80;3.95;;;5.50;99.90;;;;;;4930335;29;20235;-68
2022/01/06 06:58:12;;;;;;;7.28;3.42;;;5.50;99.90;;;;;;4923636;29;20228;-69
2022/01/06 07:00:40;;;;;;;11.10;3.13;;;5.40;99.90;;;;;;4932812;29;20203;-68
2022/01/06 07:03:08;;;;;;;9.68;3.40;;;5.50;99.90;;;;;;4940021;29;20542;-68
2022/01/06 07:05:36;;;;;;;8.48;3.40;;;5.50;99.90;;;;;;4952373;28;20222;-68
2022/01/06 07:08:05;;;;;;;11.05;4.20;;;5.50;99.90;;;;;;4953006;29;20298;-68
2022/01/06 07:10:34;;;;;;;16.90;4.25;;;5.60;99.90;;;;;;4952911;29;20195;-68
2022/01/06 07:13:02;;;;;;;14.75;4.57;;;5.70;99.90;;;;;;4952465;29;20294;-67
2022/01/06 07:15:31;;;;;;;7.45;3.35;;;5.80;99.90;;;;;;4952421;28;20545;-67
2022/01/06 07:17:59;;;;;;;6.90;3.47;;;5.80;99.90;;;;;;4952667;29;20652;-68
2022/01/06 07:20:27;;;;;;;8.27;3.55;;;5.90;99.90;;;;;;4952620;29;20210;-68
2022/01/06 07:22:55;;;;;;;15.15;3.97;;;5.70;99.90;;;;;;4947668;29;20203;-68
2022/01/06 07:25:23;;;;;;;12.25;4.70;;;5.80;99.90;;;;;;4952644;28;20610;-69
2022/01/06 07:27:52;;;;;;;9.75;4.45;;;5.80;99.90;;;;;;4940338;29;20203;-67
2022/01/06 07:30:20;;;;;;;11.02;4.18;;;5.80;99.90;;;;;;4921559;29;20654;-68
2022/01/06 07:32:50;;;;;;;13.75;3.20;;;5.90;99.90;;;;;;4920382;29;20315;-67
2022/01/06 07:35:21;;;;;;;12.27;3.85;;;6.00;99.90;;;;;;4921267;28;20248;-68
2022/01/06 07:37:49;;;;;;;11.00;2.90;;;6.10;99.90;;;;;;4931294;29;20696;-73
2022/01/06 07:40:19;;;;;;;9.40;3.55;;;6.10;99.90;;;;;;4932610;29;20287;-72
2022/01/06 07:42:47;;;;;;;8.40;3.63;;;5.90;99.90;;;;;;4952350;29;20203;-72
2022/01/06 07:45:18;;;;;;;8.82;3.35;;;5.70;99.90;;;;;;4940740;28;20718;-71
2022/01/06 07:47:56;;;;;;;13.02;5.80;;;5.50;99.90;;;;;;4927435;29;20208;-70
2022/01/06 07:50:28;;;;;;;13.45;4.93;;;5.40;99.90;;;;;;4952614;29;20335;-68
2022/01/06 07:52:57;;;;;;;11.75;5.25;;;5.20;99.90;;;;;;4952333;29;20207;-69
2022/01/06 07:55:25;;;;;;;16.73;5.30;;;7.50;99.90;;;;;;4934523;29;20248;-70
2022/01/06 07:57:54;;;;;;;18.23;6.47;;;8.70;99.90;;;;;;4929704;29;20706;-71
2022/01/06 08:00:24;;;;;;;16.15;4.45;;;9.90;99.90;;;;;;4932229;29;20256;-71
2022/01/06 08:02:52;;;;;;;16.55;3.80;;;10.40;99.90;;;;;;4930688;29;20211;-72
2022/01/06 08:05:24;;;;;;;10.65;4.32;;;10.90;99.90;;;;;;4933093;29;20247;-71
2022/01/06 08:07:52;;;;;;;19.35;4.15;;;11.00;99.90;;;;;;4933100;29;20200;-71
2022/01/06 08:10:20;;;;;;;11.15;3.20;;;11.20;99.90;;;;;;4935265;29;20223;-71
2022/01/06 08:12:48;;;;;;;5.95;3.22;;;11.60;99.90;;;;;;4936081;29;20200;-70
2022/01/06 08:15:16;;;;;;;6.45;3.05;;;11.60;99.90;;;;;;4936460;29;20224;-71
2022/01/06 08:17:46;;;;;;;10.23;3.63;;;11.60;99.90;;;;;;4936219;29;20200;-71
2022/01/06 08:20:17;;;;;;;8.68;2.90;;;11.80;99.90;;;;;;4940638;29;20257;-71
2022/01/06 08:22:45;;;;;;;11.60;3.47;;;12.00;99.90;;;;;;4954617;29;20234;-71
2022/01/06 08:25:13;;;;;;;8.77;2.95;;;12.20;99.90;;;;;;4954714;28;20779;-71
2022/01/06 08:27:41;;;;;;;6.78;2.75;;;12.20;99.90;;;;;;4954304;29;20305;-71
2022/01/06 08:30:09;;;;;;;8.85;3.05;;;12.60;99.90;;;;;;4943333;29;20232;-73
2022/01/06 08:32:37;;;;;;;7.47;4.00;;;12.40;99.90;;;;;;4932026;29;20223;-71
2022/01/06 08:35:07;;;;;;;5.30;3.85;;;12.20;99.90;;;;;;4941846;29;20243;-70
2022/01/06 08:37:35;;;;;;;6.80;3.70;;;11.40;99.90;;;;;;4936061;29;20208;-71
2022/01/06 08:40:04;;;;;;;9.48;4.30;;;10.60;99.90;;;;;;4936196;29;20267;-70
2022/01/06 08:42:32;;;;;;;7.30;4.07;;;9.80;99.90;;;;;;4935893;29;20204;-71
2022/01/06 08:45:00;;;;;;;10.18;3.40;;;8.80;99.90;;;;;;4935925;29;20223;-70
2022/01/06 08:47:29;;;;;;;12.82;4.68;;;8.10;99.90;;;;;;4935777;29;20226;-71
2022/01/06 08:49:57;;;;;;;12.48;5.60;;;7.50;99.90;;;;;;4936032;29;20645;-70
2022/01/06 08:52:27;;;;;;;7.28;3.33;;;6.80;99.90;;;;;;4935850;29;20701;-70
2022/01/06 08:54:54;;;;;;;8.90;4.05;;;6.20;99.90;;;;;;4935960;29;20204;-70
2022/01/06 08:57:22;;;;;;;4.47;3.72;;;5.80;99.90;;;;;;4947495;29;20195;-70
2022/01/06 08:59:50;;;;;;;9.45;4.32;;;5.80;99.90;;;;;;4948768;29;20232;-70
2022/01/06 09:02:18;;;;;;;10.23;4.47;;;6.00;99.90;;;;;;4935615;29;20260;-71
2022/01/06 09:04:46;;;;;;;9.68;4.78;;;6.10;99.90;;;;;;4942738;28;20213;-71
2022/01/06 09:07:14;;;;;;;10.93;4.57;;;6.20;99.90;;;;;;4953866;29;20356;-70
2022/01/06 09:09:44;;;;;;;7.93;4.75;;;6.10;99.90;;;;;;4953747;29;20739;-70
2022/01/06 09:12:17;;;;;;;11.40;5.68;;;6.20;99.90;;;;;;4929394;29;20265;-70
2022/01/06 09:14:45;;;;;;;11.98;5.70;;;6.20;99.90;;;;;;4930189;29;20658;-70
2022/01/06 09:17:13;;;;;;;9.80;5.45;;;5.90;99.90;;;;;;4935557;29;20259;-71
2022/01/06 09:19:41;;;;;;;17.38;6.60;;;6.00;99.90;;;;;;4947783;29;20200;-70
2022/01/06 09:22:09;;;;;;;10.40;6.25;;;6.20;99.90;;;;;;4953076;28;20257;-70
2022/01/06 09:24:37;;;;;;;10.35;5.75;;;6.30;99.90;;;;;;4953664;29;20307;-70
2022/01/06 09:27:06;;;;;;;17.80;6.10;;;6.50;99.90;;;;;;4953571;29;20254;-71
2022/01/06 09:29:34;;;;;;;14.40;5.25;;;7.10;99.90;;;;;;4944276;29;20238;-71
2022/01/06 09:32:03;;;;;;;10.00;5.15;;;7.80;99.90;;;;;;4929289;29;20540;-71
2022/01/06 09:34:31;;;;;;;9.25;4.22;;;8.60;99.90;;;;;;4953403;29;20231;-71
2022/01/06 09:36:59;;;;;;;10.07;3.97;;;9.10;99.90;;;;;;4953370;28;20219;-71
2022/01/06 09:39:27;;;;;;;14.25;4.93;;;9.60;99.90;;;;;;4942315;29;20252;-71
2022/01/06 09:41:55;;;;;;;8.02;4.30;;;9.80;99.90;;;;;;4939663;29;20201;-69
2022/01/06 09:44:25;;;;;;;11.13;4.60;;;9.90;99.90;;;;;;4953115;29;20227;-71
2022/01/06 09:47:01;;;;;;;10.75;3.78;;;9.50;99.90;;;;;;4953008;28;20247;-70
2022/01/06 09:49:29;;;;;;;6.03;3.95;;;8.70;99.90;;;;;;4953031;29;20278;-70
2022/01/06 09:51:57;;;;;;;8.60;3.83;;;8.20;99.90;;;;;;4953230;29;20265;-70
2022/01/06 09:54:25;;;;;;;10.90;4.47;;;7.70;99.90;;;;;;4929064;29;20540;-70
2022/01/06 09:56:53;;;;;;;12.50;5.25;;;7.60;99.90;;;;;;4922316;29;20248;-70
2022/01/06 09:59:21;;;;;;;9.50;4.30;;;7.40;99.90;;;;;;4933686;29;20830;-70
2022/01/06 10:01:50;;;;;;;13.70;5.50;;;7.10;99.90;;;;;;4924202;29;20287;-70
2022/01/06 10:04:21;;;;;;;12.20;5.03;;;7.00;99.90;;;;;;4926401;29;20210;-70
2022/01/06 10:07:00;;;;;;;10.88;5.03;;;7.00;99.90;;;;;;4929363;29;20219;-71
2022/01/06 10:09:28;;;;;;;9.93;5.20;;;7.00;99.90;;;;;;4946792;29;20821;-70
2022/01/06 10:11:57;;;;;;;13.02;6.03;;;7.00;99.90;;;;;;4947087;29;20215;-69
2022/01/06 10:14:37;;;;;;;12.93;5.13;;;7.30;99.90;;;;;;4926875;29;20208;-70
2022/01/06 10:17:08;;;;;;;14.77;5.32;;;7.50;99.90;;;;;;4920694;29;20197;-71
2022/01/06 10:19:37;;;;;;;11.65;5.28;;;7.50;99.90;;;;;;4947603;29;20235;-70
2022/01/06 10:22:13;;;;;;;10.50;5.80;;;7.70;99.90;;;;;;4947942;29;20211;-70
2022/01/06 10:24:44;;;;;;;10.07;4.78;;;8.10;99.90;;;;;;4936870;29;20309;-70
2022/01/06 10:27:13;;;;;;;11.88;5.70;;;8.60;99.90;;;;;;4930093;29;20314;-70
2022/01/06 10:29:45;;;;;;;6.07;4.13;;;9.10;99.90;;;;;;4943462;29;20228;-70
2022/01/06 10:32:16;;;;;;;8.95;4.53;;;9.40;99.90;;;;;;4931823;29;20290;-70
2022/01/06 10:34:46;;;;;;;10.18;5.05;;;9.80;99.90;;;;;;4930390;29;20255;-67
2022/01/06 10:37:19;;;;;;;15.05;4.53;;;10.20;99.90;;;;;;4931329;29;20208;-69
2022/01/06 10:39:48;;;;;;;10.15;4.18;;;10.50;99.90;;;;;;4929164;29;20299;-70
2022/01/06 10:42:16;;;;;;;13.27;4.40;;;10.80;99.90;;;;;;4928839;29;20567;-69
2022/01/06 10:44:49;;;;;;;10.95;4.75;;;10.50;99.90;;;;;;4923295;29;20267;-70
2022/01/06 10:47:31;;;;;;;10.00;5.68;;;10.10;99.90;;;;;;4927585;29;20248;-70
2022/01/06 10:50:10;;;;;;;12.80;7.55;;;9.80;99.90;;;;;;4929503;29;20295;-69
2022/01/06 10:52:39;;;;;;;8.88;4.40;;;10.10;99.90;;;;;;4930243;29;20254;-70
2022/01/06 10:55:15;;;;;;;10.50;4.60;;;10.30;99.90;;;;;;4924801;29;20302;-70
2022/01/06 10:57:54;;;;;;;11.52;3.65;;;10.70;99.90;;;;;;4926817;28;20210;-70
2022/01/06 11:00:25;;;;;;;8.98;4.40;;;10.70;99.90;;;;;;4923115;29;20319;-68
2022/01/06 11:03:04;;;;;;;7.10;3.90;;;9.90;99.90;;;;;;4922258;29;20227;-70
2022/01/06 11:05:33;;;;;;;8.27;4.35;;;9.50;99.90;;;;;;4919006;29;20225;-70
2022/01/06 11:08:02;;;;;;;11.75;4.45;;;9.30;99.90;;;;;;4929610;29;20688;-70
2022/01/06 11:10:30;;;;;;;9.20;4.90;;;8.80;99.90;;;;;;4947270;29;20310;-69
2022/01/06 11:12:59;;;;;;;12.80;5.80;;;8.60;99.90;;;;;;4946901;29;20203;-68
2022/01/06 11:15:27;;;;;;;14.68;5.03;;;8.60;99.90;;;;;;4926553;29;20225;-68
2022/01/06 11:18:00;;;;;;;6.25;4.25;;;8.40;99.90;;;;;;4933360;29;20241;-70
2022/01/06 11:20:29;;;;;;;8.30;4.30;;;8.30;99.90;;;;;;4931991;29;20208;-70
2022/01/06 11:22:59;;;;;;;15.48;4.32;;;8.40;99.90;;;;;;4943876;29;20231;-70
2022/01/06 11:25:31;;;;;;;16.38;5.10;;;8.40;99.90;;;;;;4929414;28;20230;-70
2022/01/06 11:28:04;;;;;;;11.10;4.13;;;8.20;99.90;;;;;;4936939;29;20223;-70
2022/01/06 11:30:47;;;;;;;9.80;4.43;;;8.00;99.90;;;;;;4937114;29;20299;-69
2022/01/06 11:33:17;;;;;;;17.10;4.75;;;8.00;99.90;;;;;;4918427;29;20227;-70
2022/01/06 11:35:53;;;;;;;10.57;5.20;;;8.10;99.90;;;;;;4926905;29;20286;-70
2022/01/06 11:38:23;;;;;;;12.73;6.47;;;8.30;99.90;;;;;;4930734;29;20627;-70
2022/01/06 11:40:52;;;;;;;13.82;5.40;;;8.20;99.90;;;;;;4946835;29;20203;-70
2022/01/06 11:43:20;;;;;;;20.98;6.10;;;8.10;99.90;;;;;;4946823;28;20270;-70
2022/01/06 11:46:00;;;;;;;9.43;5.18;;;8.40;99.90;;;;;;4926857;29;20242;-70
2022/01/06 11:48:30;;;;;;;18.55;10.52;;;8.40;99.90;;;;;;4931887;29;20211;-69
2022/01/06 11:50:58;;;;;;;12.98;3.83;;;8.40;99.90;;;;;;4936658;29;20231;-70
2022/01/06 11:53:32;;;;;;;13.52;5.05;;;8.40;99.90;;;;;;4935572;29;20846;-70
2022/01/06 11:56:11;;;;;;;11.05;4.63;;;8.40;99.90;;;;;;4924997;29;20228;-70
2022/01/06 11:58:39;;;;;;;8.02;4.93;;;8.40;99.90;;;;;;4929231;29;20291;-69
2022/01/06 12:01:14;;;;;;;12.35;4.35;;;8.30;99.90;;;;;;4921811;29;20253;-70
2022/01/06 12:03:45;;;;;;;9.20;3.95;;;8.30;99.90;;;;;;4932667;29;20199;-70
2022/01/06 12:06:24;;;;;;;7.78;4.70;;;8.20;99.90;;;;;;4922850;29;20217;-69
2022/01/06 12:08:52;;;;;;;10.85;6.65;;;8.00;99.90;;;;;;4945111;29;20254;-69
2022/01/06 12:11:22;;;;;;;8.93;4.50;;;7.90;99.90;;;;;;4947569;29;20213;-69
2022/01/06 12:13:51;;;;;;;5.22;3.55;;;7.80;99.90;;;;;;4928060;29;20319;-70
2022/01/06 12:16:27;;;;;;;7.75;3.90;;;7.60;99.90;;;;;;4928226;29;20247;-69
2022/01/06 12:18:57;;;;;;;7.43;3.42;;;7.70;99.90;;;;;;4947938;29;20237;-72
2022/01/06 12:21:26;;;;;;;7.10;3.05;;;7.90;99.90;;;;;;4950395;29;20294;-72
2022/01/06 12:24:02;;;;;;;8.18;4.18;;;8.10;99.90;;;;;;4942623;29;20244;-72
2022/01/06 12:26:31;;;;;;;6.70;3.28;;;8.30;99.90;;;;;;4928737;29;20219;-72
2022/01/06 12:28:59;;;;;;;7.25;3.67;;;8.40;99.90;;;;;;4937016;29;20318;-72
2022/01/06 12:31:29;;;;;;;14.48;9.70;;;8.40;99.90;;;;;;4928147;29;20303;-72
2022/01/06 12:34:00;;;;;;;12.27;5.20;;;8.30;99.90;;;;;;4924223;29;20221;-69
2022/01/06 12:36:32;;;;;;;14.32;3.83;;;8.20;99.90;;;;;;4927850;29;20225;-70
2022/01/06 12:39:07;;;;;;;8.15;3.15;;;8.20;99.90;;;;;;4929862;29;20237;-69
2022/01/06 12:41:37;;;;;;;13.48;5.90;;;8.20;99.90;;;;;;4938531;29;20708;-71
2022/01/06 12:44:05;;;;;;;13.13;5.03;;;8.10;99.90;;;;;;4931591;29;20310;-70
2022/01/06 12:46:35;;;;;;;7.68;3.50;;;8.00;99.90;;;;;;4922575;29;20315;-70
2022/01/06 12:49:07;;;;;;;12.48;4.30;;;7.80;99.90;;;;;;4930813;29;20307;-70
2022/01/06 12:51:38;;;;;;;11.82;3.70;;;7.60;99.90;;;;;;4929780;29;20200;-71
2022/01/06 12:54:09;;;;;;;10.23;3.55;;;7.40;99.90;;;;;;4924974;29;20295;-69
2022/01/06 12:56:38;;;;;;;15.13;3.95;;;7.40;99.90;;;;;;4926190;29;20298;-70
2022/01/06 12:59:11;;;;;;;14.75;3.65;;;7.50;99.90;;;;;;4932720;29;20303;-70
2022/01/06 13:01:40;;;;;;;14.57;4.93;;;7.40;99.90;;;;;;4931508;29;20250;-68
2022/01/06 13:04:11;;;;;;;9.52;3.92;;;7.40;99.90;;;;;;4923022;29;20209;-69